createdAt,value
2023-04-30T00:02:04.641Z,2.53
2023-04-30T00:04:33.896Z,2.20
2023-04-30T00:07:02.162Z,2.22
2023-04-30T00:09:30.222Z,2.10
2023-04-30T00:11:58.537Z,2.65
2023-04-30T00:14:27.925Z,2.28
2023-04-30T00:16:56.032Z,1.95
2023-04-30T00:19:26.423Z,1.95
2023-04-30T00:21:54.508Z,1.92
2023-04-30T00:24:22.610Z,2.37
2023-04-30T00:26:50.864Z,1.98
2023-04-30T00:29:19.274Z,2.12
2023-04-30T00:31:49.014Z,1.90
2023-04-30T00:34:20.025Z,2.22
2023-04-30T00:36:47.999Z,2.10
2023-04-30T00:39:16.614Z,1.73
2023-04-30T00:41:45.936Z,1.83
2023-04-30T00:44:13.920Z,2.47
2023-04-30T00:46:41.915Z,2.42
2023-04-30T00:49:11.536Z,2.17
2023-04-30T00:51:42.071Z,2.00
2023-04-30T00:54:10.857Z,2.35
2023-04-30T00:56:38.931Z,2.70
2023-04-30T00:59:07.222Z,2.72
2023-04-30T01:01:35.754Z,2.65
2023-04-30T01:04:04.003Z,2.42
2023-04-30T01:06:33.975Z,2.85
2023-04-30T01:09:03.119Z,2.65
2023-04-30T01:11:41.548Z,2.67
2023-04-30T01:14:14.643Z,2.17
2023-04-30T01:16:48.766Z,2.12
2023-04-30T01:19:32.756Z,2.45
2023-04-30T01:22:05.607Z,2.90
2023-04-30T01:24:50.218Z,2.50
2023-04-30T01:27:31.570Z,2.67
2023-04-30T01:30:04.595Z,2.85
2023-04-30T01:32:32.668Z,2.50
2023-04-30T01:35:03.082Z,2.80
2023-04-30T01:37:41.806Z,2.45
2023-04-30T01:40:23.194Z,2.58
2023-04-30T01:43:01.120Z,2.60
2023-04-30T01:45:48.653Z,2.45
2023-04-30T01:48:26.741Z,1.95
2023-04-30T01:51:03.185Z,2.03
2023-04-30T01:53:36.581Z,2.45
2023-04-30T01:56:11.048Z,2.33
2023-04-30T01:58:39.682Z,2.10
2023-04-30T02:01:09.551Z,2.42
2023-04-30T02:03:37.920Z,1.80
2023-04-30T02:06:06.105Z,2.30
2023-04-30T02:08:34.161Z,2.20
2023-04-30T02:11:02.527Z,1.83
2023-04-30T02:13:30.705Z,2.20
2023-04-30T02:15:58.720Z,2.15
2023-04-30T02:18:28.410Z,2.65
2023-04-30T02:20:56.508Z,1.87
2023-04-30T02:23:24.606Z,1.87
2023-04-30T02:25:52.868Z,2.08
2023-04-30T02:28:20.883Z,2.83
2023-04-30T02:30:49.000Z,1.83
2023-04-30T02:33:17.995Z,1.98
2023-04-30T02:35:47.653Z,2.20
2023-04-30T02:38:15.791Z,2.17
2023-04-30T02:40:44.055Z,2.35
2023-04-30T02:43:12.123Z,2.00
2023-04-30T02:45:40.098Z,2.40
2023-04-30T02:48:08.573Z,1.75
2023-04-30T02:50:36.701Z,2.17
2023-04-30T02:53:06.141Z,2.62
2023-04-30T02:55:34.574Z,2.15
2023-04-30T02:58:02.989Z,1.90
2023-04-30T03:00:31.153Z,2.50
2023-04-30T03:02:59.795Z,2.05
2023-04-30T03:05:29.462Z,1.80
2023-04-30T03:07:57.399Z,2.37
2023-04-30T03:10:27.394Z,1.87
2023-04-30T03:12:55.543Z,2.12
2023-04-30T03:15:23.554Z,2.00
2023-04-30T03:17:51.892Z,1.85
2023-04-30T03:20:20.137Z,2.08
2023-04-30T03:22:48.111Z,2.15
2023-04-30T03:25:16.920Z,2.12
2023-04-30T03:27:46.452Z,2.80
2023-04-30T03:30:14.820Z,3.05
2023-04-30T03:32:43.418Z,2.75
2023-04-30T03:35:12.009Z,3.03
2023-04-30T03:37:40.185Z,2.97
2023-04-30T03:40:09.981Z,2.53
2023-04-30T03:42:38.122Z,2.97
2023-04-30T03:45:09.045Z,2.80
2023-04-30T03:47:37.843Z,2.70
2023-04-30T03:50:07.417Z,2.95
2023-04-30T03:52:36.782Z,3.10
2023-04-30T03:55:06.209Z,3.00
2023-04-30T03:57:34.511Z,2.67
2023-04-30T04:00:04.438Z,2.33
2023-04-30T04:02:42.680Z,2.90
2023-04-30T04:05:11.959Z,2.45
2023-04-30T04:07:40.456Z,2.58
2023-04-30T04:10:09.366Z,2.33
2023-04-30T04:12:37.707Z,2.33
2023-04-30T04:15:06.676Z,2.28
2023-04-30T04:17:34.808Z,2.15
2023-04-30T04:20:06.258Z,2.87
2023-04-30T04:22:36.244Z,2.70
2023-04-30T04:25:04.806Z,2.10
2023-04-30T04:27:33.399Z,2.37
2023-04-30T04:30:01.946Z,2.33
2023-04-30T04:32:30.638Z,2.35
2023-04-30T04:34:59.595Z,2.85
2023-04-30T04:37:29.207Z,2.70
2023-04-30T04:39:57.809Z,2.37
2023-04-30T04:42:26.295Z,2.50
2023-04-30T04:44:54.408Z,1.92
2023-04-30T04:47:22.948Z,2.37
2023-04-30T04:49:51.351Z,2.15
2023-04-30T04:52:19.557Z,2.37
2023-04-30T04:54:49.251Z,2.25
2023-04-30T04:57:17.329Z,2.37
2023-04-30T04:59:45.330Z,2.60
2023-04-30T05:02:13.619Z,2.35
2023-04-30T05:04:41.956Z,2.35
2023-04-30T05:07:10.029Z,2.03
2023-04-30T05:09:38.371Z,2.25
2023-04-30T05:12:07.913Z,1.95
2023-04-30T05:14:37.237Z,2.12
2023-04-30T05:17:05.505Z,1.75
2023-04-30T05:19:33.792Z,1.70
2023-04-30T05:22:02.516Z,2.55
2023-04-30T05:24:31.199Z,1.98
2023-04-30T05:26:59.367Z,2.28
2023-04-30T05:29:28.893Z,2.05
2023-04-30T05:31:57.309Z,1.50
2023-04-30T05:34:25.363Z,2.35
2023-04-30T05:36:53.360Z,1.80
2023-04-30T05:39:21.714Z,2.37
2023-04-30T05:41:50.715Z,1.95
2023-04-30T05:44:19.876Z,2.10
2023-04-30T05:46:49.560Z,1.73
2023-04-30T05:49:17.555Z,1.85
2023-04-30T05:51:45.726Z,1.80
2023-04-30T05:54:14.040Z,2.28
2023-04-30T05:56:42.211Z,2.12
2023-04-30T05:59:10.302Z,1.65
2023-04-30T06:01:39.049Z,1.80
2023-04-30T06:04:09.381Z,2.47
2023-04-30T06:06:37.547Z,2.20
2023-04-30T06:09:05.692Z,1.95
2023-04-30T06:11:34.154Z,1.85
2023-04-30T06:14:05.426Z,2.17
2023-04-30T06:16:34.044Z,1.73
2023-04-30T06:19:02.108Z,1.62
2023-04-30T06:21:31.924Z,1.80
2023-04-30T06:24:00.256Z,1.60
2023-04-30T06:26:28.537Z,1.95
2023-04-30T06:28:56.975Z,1.67
2023-04-30T06:31:25.524Z,2.42
2023-04-30T06:33:56.894Z,2.35
2023-04-30T06:36:25.283Z,1.55
2023-04-30T06:38:55.098Z,2.28
2023-04-30T06:41:23.285Z,1.73
2023-04-30T06:43:51.663Z,2.22
2023-04-30T06:46:20.305Z,2.42
2023-04-30T06:48:48.423Z,2.28
2023-04-30T06:51:16.708Z,1.98
2023-04-30T06:53:44.988Z,2.30
2023-04-30T06:56:14.417Z,2.00
2023-04-30T06:58:42.651Z,2.12
2023-04-30T07:01:10.951Z,1.75
2023-04-30T07:03:39.165Z,1.42
2023-04-30T07:06:07.300Z,1.95
2023-04-30T07:08:35.780Z,1.65
2023-04-30T07:11:03.990Z,1.73
2023-04-30T07:13:33.394Z,1.60
2023-04-30T07:16:01.868Z,1.77
2023-04-30T07:18:30.196Z,1.60
2023-04-30T07:20:58.731Z,1.83
2023-04-30T07:23:28.475Z,2.10
2023-04-30T07:25:58.697Z,1.55
2023-04-30T07:28:27.849Z,1.35
2023-04-30T07:30:58.810Z,1.90
2023-04-30T07:33:30.577Z,2.03
2023-04-30T07:35:59.041Z,1.65
2023-04-30T07:38:27.834Z,1.70
2023-04-30T07:40:56.025Z,1.75
2023-04-30T07:43:24.918Z,1.67
2023-04-30T07:45:54.394Z,1.80
2023-04-30T07:48:24.063Z,1.48
2023-04-30T07:50:53.124Z,1.30
2023-04-30T07:53:21.664Z,1.60
2023-04-30T07:55:49.724Z,1.85
2023-04-30T07:58:18.644Z,1.60
2023-04-30T08:00:47.119Z,1.70
2023-04-30T08:03:15.505Z,1.60
2023-04-30T08:05:46.284Z,1.73
2023-04-30T08:08:16.504Z,1.95
2023-04-30T08:10:45.126Z,1.62
2023-04-30T08:13:13.112Z,1.50
2023-04-30T08:15:42.433Z,2.03
2023-04-30T08:18:11.049Z,1.67
2023-04-30T08:20:39.280Z,1.92
2023-04-30T08:23:08.900Z,1.52
2023-04-30T08:25:37.949Z,1.77
2023-04-30T08:28:07.656Z,2.00
2023-04-30T08:30:35.793Z,2.00
2023-04-30T08:33:04.152Z,1.73
2023-04-30T08:35:32.398Z,1.50
2023-04-30T08:38:00.432Z,1.92
2023-04-30T08:40:49.417Z,2.00
2023-04-30T08:43:19.387Z,1.52
2023-04-30T08:45:48.501Z,1.98
2023-04-30T08:48:17.572Z,1.27
2023-04-30T08:50:45.965Z,1.40
2023-04-30T08:53:17.406Z,2.10
2023-04-30T08:55:47.698Z,1.50
2023-04-30T08:58:16.063Z,1.35
2023-04-30T09:00:44.536Z,1.10
2023-04-30T09:03:12.851Z,2.08
2023-04-30T09:05:41.818Z,1.70
2023-04-30T09:08:10.021Z,1.00
2023-04-30T09:10:38.373Z,1.60
2023-04-30T09:13:09.595Z,1.80
2023-04-30T09:15:41.659Z,1.37
2023-04-30T09:18:12.707Z,1.33
2023-04-30T09:20:56.359Z,1.30
2023-04-30T09:23:25.148Z,1.37
2023-04-30T09:25:53.505Z,1.25
2023-04-30T09:28:27.336Z,1.48
2023-04-30T09:30:57.888Z,2.05
2023-04-30T09:33:25.993Z,1.60
2023-04-30T09:35:54.257Z,1.35
2023-04-30T09:38:30.333Z,1.37
2023-04-30T09:41:00.082Z,1.83
2023-04-30T09:43:30.063Z,1.62
2023-04-30T09:46:00.638Z,1.87
2023-04-30T09:48:29.390Z,1.40
2023-04-30T09:50:57.749Z,1.70
2023-04-30T09:53:26.023Z,1.60
2023-04-30T09:55:56.252Z,1.92
2023-04-30T09:58:30.240Z,1.45
2023-04-30T10:01:02.616Z,1.70
2023-04-30T10:03:33.439Z,1.37
2023-04-30T10:06:02.059Z,1.77
2023-04-30T10:08:34.987Z,1.77
2023-04-30T10:11:05.202Z,1.62
2023-04-30T10:13:39.925Z,1.87
2023-04-30T10:16:18.697Z,1.83
2023-04-30T10:18:51.743Z,1.67
2023-04-30T10:21:23.758Z,1.70
2023-04-30T10:23:52.691Z,1.48
2023-04-30T10:26:21.275Z,1.30
2023-04-30T10:28:51.556Z,1.40
2023-04-30T10:31:21.136Z,1.62
2023-04-30T10:33:59.424Z,1.17
2023-04-30T10:36:38.700Z,1.70
2023-04-30T10:39:07.234Z,1.77
2023-04-30T10:41:35.626Z,1.58
2023-04-30T10:44:06.461Z,1.42
2023-04-30T10:46:36.368Z,1.50
2023-04-30T10:49:05.424Z,1.92
2023-04-30T10:51:48.438Z,1.58
2023-04-30T10:54:21.147Z,1.50
2023-04-30T10:56:49.196Z,1.45
2023-04-30T10:59:19.429Z,1.70
2023-04-30T11:01:59.598Z,1.35
2023-04-30T11:04:28.929Z,1.42
2023-04-30T11:07:04.646Z,1.58
2023-04-30T11:09:42.377Z,1.08
2023-04-30T11:12:16.162Z,1.30
2023-04-30T11:14:47.156Z,1.45
2023-04-30T11:17:23.594Z,1.27
2023-04-30T11:19:54.904Z,1.17
2023-04-30T11:22:25.441Z,1.40
2023-04-30T11:25:06.096Z,0.95
2023-04-30T11:27:35.711Z,1.92
2023-04-30T11:30:12.097Z,1.20
2023-04-30T11:32:41.207Z,0.98
2023-04-30T11:35:10.789Z,1.10
2023-04-30T11:37:40.836Z,1.33
2023-04-30T11:40:11.203Z,1.40
2023-04-30T11:42:41.189Z,1.40
2023-04-30T11:45:13.594Z,1.33
2023-04-30T11:47:46.641Z,1.35
2023-04-30T11:50:16.909Z,1.70
2023-04-30T11:52:50.864Z,1.52
2023-04-30T11:55:22.412Z,1.30
2023-04-30T11:57:53.161Z,1.42
2023-04-30T12:00:26.864Z,1.27
2023-04-30T12:02:56.920Z,1.10
2023-04-30T12:05:26.954Z,1.20
2023-04-30T12:07:57.216Z,1.17
2023-04-30T12:10:26.015Z,0.98
2023-04-30T12:12:54.746Z,1.23
2023-04-30T12:15:26.992Z,1.25
2023-04-30T12:17:57.192Z,1.65
2023-04-30T12:20:28.314Z,1.02
2023-04-30T12:22:57.018Z,1.62
2023-04-30T12:25:25.787Z,1.20
2023-04-30T12:27:54.507Z,1.10
2023-04-30T12:30:26.829Z,1.37
2023-04-30T12:32:58.771Z,1.20
2023-04-30T12:35:31.048Z,1.33
2023-04-30T12:38:04.644Z,1.15
2023-04-30T12:40:33.416Z,1.00
2023-04-30T12:43:03.442Z,0.95
2023-04-30T12:45:47.503Z,1.23
2023-04-30T12:48:17.184Z,1.00
2023-04-30T12:50:49.448Z,0.82
2023-04-30T12:53:17.847Z,0.90
2023-04-30T12:55:45.917Z,1.10
2023-04-30T12:58:16.588Z,1.15
2023-04-30T13:00:48.122Z,1.35
2023-04-30T13:03:17.689Z,1.05
2023-04-30T13:05:49.426Z,1.15
2023-04-30T13:08:18.215Z,1.08
2023-04-30T13:10:47.179Z,1.15
2023-04-30T13:13:17.032Z,1.17
2023-04-30T13:15:46.429Z,1.23
2023-04-30T13:18:15.865Z,1.05
2023-04-30T13:20:44.696Z,1.00
2023-04-30T13:23:13.078Z,0.70
2023-04-30T13:25:42.756Z,0.80
2023-04-30T13:28:11.166Z,1.05
2023-04-30T13:30:39.169Z,0.90
2023-04-30T13:33:08.968Z,0.80
2023-04-30T13:35:37.079Z,1.12
2023-04-30T13:38:05.035Z,1.05
2023-04-30T13:40:33.414Z,0.90
2023-04-30T13:43:02.050Z,0.70
2023-04-30T13:45:30.596Z,1.00
2023-04-30T13:47:59.055Z,0.68
2023-04-30T13:50:28.611Z,1.00
2023-04-30T13:52:59.201Z,0.80
2023-04-30T13:55:27.629Z,1.00
2023-04-30T13:57:55.683Z,1.02
2023-04-30T14:00:23.762Z,1.30
2023-04-30T14:02:52.145Z,0.88
2023-04-30T14:05:20.213Z,1.20
2023-04-30T14:07:49.592Z,0.98
2023-04-30T14:10:17.992Z,1.08
2023-04-30T14:12:46.147Z,1.17
2023-04-30T14:15:14.765Z,1.00
2023-04-30T14:17:43.300Z,1.02
2023-04-30T14:20:13.700Z,1.20
2023-04-30T14:22:41.894Z,0.70
2023-04-30T14:25:12.719Z,0.93
2023-04-30T14:27:41.405Z,0.70
2023-04-30T14:30:10.458Z,1.23
2023-04-30T14:32:38.752Z,1.10
2023-04-30T14:35:08.015Z,0.88
2023-04-30T14:37:36.095Z,0.65
2023-04-30T14:40:07.949Z,1.17
2023-04-30T14:42:37.555Z,1.08
2023-04-30T14:45:06.993Z,1.00
2023-04-30T14:47:35.124Z,1.15
2023-04-30T14:50:03.206Z,0.80
2023-04-30T14:52:31.578Z,0.95
2023-04-30T14:54:59.660Z,0.80
2023-04-30T14:57:28.069Z,0.88
2023-04-30T14:59:59.502Z,0.62
2023-04-30T15:02:27.742Z,0.65
2023-04-30T15:04:55.859Z,0.85
2023-04-30T15:07:24.257Z,0.70
2023-04-30T15:09:52.906Z,0.80
2023-04-30T15:12:22.322Z,0.70
2023-04-30T15:14:50.611Z,0.98
2023-04-30T15:17:20.370Z,0.85
2023-04-30T15:19:48.480Z,0.90
2023-04-30T15:22:17.400Z,1.12
2023-04-30T15:24:45.587Z,0.90
2023-04-30T15:27:13.882Z,0.60
2023-04-30T15:29:42.272Z,0.80
2023-04-30T15:32:10.557Z,0.70
2023-04-30T15:34:40.066Z,0.70
2023-04-30T15:37:09.087Z,1.00
2023-04-30T15:39:37.144Z,0.90
2023-04-30T15:42:05.279Z,1.20
2023-04-30T15:44:33.495Z,0.70
2023-04-30T15:47:02.270Z,0.73
2023-04-30T15:49:30.373Z,0.98
2023-04-30T15:51:59.931Z,0.70
2023-04-30T15:54:28.054Z,0.70
2023-04-30T15:56:56.114Z,0.90
2023-04-30T15:59:24.603Z,0.70
2023-04-30T16:01:52.743Z,0.73
2023-04-30T16:04:21.276Z,0.75
2023-04-30T16:06:50.199Z,1.20
2023-04-30T16:09:20.617Z,1.00
2023-04-30T16:11:49.285Z,0.80
2023-04-30T16:14:17.499Z,0.85
2023-04-30T16:16:45.753Z,0.90
2023-04-30T16:19:14.100Z,0.70
2023-04-30T16:21:42.318Z,0.90
2023-04-30T16:24:10.995Z,0.82
2023-04-30T16:26:40.609Z,0.77
2023-04-30T16:29:09.200Z,1.00
2023-04-30T16:31:37.402Z,0.90
2023-04-30T16:34:06.069Z,1.00
2023-04-30T16:36:34.160Z,0.65
2023-04-30T16:39:02.349Z,1.00
2023-04-30T16:41:31.029Z,0.90
2023-04-30T16:44:00.462Z,1.27
2023-04-30T16:46:28.823Z,1.02
2023-04-30T16:48:57.215Z,1.12
2023-04-30T16:51:25.213Z,1.40
2023-04-30T16:53:53.564Z,1.27
2023-04-30T16:56:22.313Z,0.90
2023-04-30T16:58:50.315Z,1.00
2023-04-30T17:01:19.817Z,0.95
2023-04-30T17:03:48.290Z,0.90
2023-04-30T17:06:16.467Z,1.40
2023-04-30T17:08:44.799Z,1.45
2023-04-30T17:11:13.293Z,1.20
2023-04-30T17:13:41.393Z,0.80
2023-04-30T17:16:09.444Z,1.05
2023-04-30T17:18:39.242Z,1.10
2023-04-30T17:21:07.418Z,0.98
2023-04-30T17:23:35.403Z,0.77
2023-04-30T17:26:04.113Z,0.98
2023-04-30T17:28:32.669Z,1.00
2023-04-30T17:31:03.325Z,0.77
2023-04-30T17:33:31.698Z,1.00
2023-04-30T17:36:01.152Z,0.73
2023-04-30T17:38:31.007Z,0.80
2023-04-30T17:40:59.303Z,0.93
2023-04-30T17:43:27.694Z,0.80
2023-04-30T17:45:57.245Z,0.90
2023-04-30T17:48:26.015Z,0.90
2023-04-30T17:50:54.191Z,0.55
2023-04-30T17:53:23.597Z,1.25
2023-04-30T17:55:52.512Z,1.20
2023-04-30T17:58:20.589Z,1.00
2023-04-30T18:00:48.770Z,1.20
2023-04-30T18:03:17.294Z,1.20
2023-04-30T18:05:45.693Z,1.23
2023-04-30T18:08:13.732Z,1.30
2023-04-30T18:10:43.469Z,1.67
2023-04-30T18:13:11.751Z,7.55
2023-04-30T18:15:39.729Z,3.58
2023-04-30T18:18:08.282Z,3.83
2023-04-30T18:20:36.533Z,4.28
2023-04-30T18:23:05.848Z,4.22
2023-04-30T18:25:36.966Z,4.00
2023-04-30T18:28:07.709Z,3.70
2023-04-30T18:30:36.895Z,2.35
2023-04-30T18:33:05.346Z,1.75
2023-04-30T18:35:34.039Z,1.50
2023-04-30T18:38:02.698Z,1.92
2023-04-30T18:40:30.972Z,1.75
2023-04-30T18:42:59.056Z,1.40
2023-04-30T18:45:29.097Z,1.60
2023-04-30T18:47:57.369Z,1.70
2023-04-30T18:50:27.358Z,1.67
2023-04-30T18:52:55.860Z,1.58
2023-04-30T18:55:24.131Z,1.40
2023-04-30T18:57:52.491Z,1.30
2023-04-30T19:00:21.031Z,1.05
2023-04-30T19:02:50.740Z,1.58
2023-04-30T19:05:19.264Z,1.37
2023-04-30T19:07:47.588Z,2.12
2023-04-30T19:10:16.189Z,2.62
2023-04-30T19:12:44.766Z,2.53
2023-04-30T19:15:15.044Z,2.30
2023-04-30T19:17:43.296Z,1.80
2023-04-30T19:20:14.109Z,1.42
2023-04-30T19:22:42.660Z,1.55
2023-04-30T19:25:11.466Z,1.50
2023-04-30T19:27:39.849Z,1.20
2023-04-30T19:30:09.371Z,1.80
2023-04-30T19:32:38.059Z,1.35
2023-04-30T19:35:07.158Z,1.48
2023-04-30T19:37:37.547Z,1.15
2023-04-30T19:40:10.435Z,1.33
2023-04-30T19:42:38.895Z,1.25
2023-04-30T19:45:08.888Z,1.50
2023-04-30T19:47:38.255Z,1.30
2023-04-30T19:50:07.929Z,1.87
2023-04-30T19:52:37.466Z,1.15
2023-04-30T19:55:06.568Z,1.98
2023-04-30T19:57:36.140Z,2.00
2023-04-30T20:00:06.032Z,1.70
2023-04-30T20:02:35.297Z,1.37
2023-04-30T20:05:06.964Z,1.75
2023-04-30T20:07:35.825Z,1.55
2023-04-30T20:10:06.438Z,1.40
2023-04-30T20:12:34.625Z,1.33
2023-04-30T20:15:03.516Z,2.00
2023-04-30T20:17:33.920Z,2.90
2023-04-30T20:20:02.790Z,2.92
2023-04-30T20:22:31.165Z,1.75
2023-04-30T20:24:59.433Z,1.98
2023-04-30T20:27:29.510Z,1.52
2023-04-30T20:29:57.751Z,2.22
2023-04-30T20:32:26.280Z,2.62
2023-04-30T20:34:54.363Z,2.35
2023-04-30T20:37:22.511Z,2.37
2023-04-30T20:39:50.825Z,2.10
2023-04-30T20:42:19.367Z,2.33
2023-04-30T20:44:49.079Z,2.97
2023-04-30T20:47:17.455Z,1.70
2023-04-30T20:49:45.672Z,1.40
2023-04-30T20:52:14.317Z,1.40
2023-04-30T20:54:43.193Z,2.65
2023-04-30T20:57:11.284Z,2.12
2023-04-30T20:59:39.323Z,3.40
2023-04-30T21:02:10.304Z,4.10
2023-04-30T21:04:38.463Z,3.50
2023-04-30T21:07:06.812Z,3.67
2023-04-30T21:09:35.808Z,3.60
2023-04-30T21:12:05.500Z,4.97
2023-04-30T21:14:33.953Z,4.55
2023-04-30T21:17:02.436Z,4.25
2023-04-30T21:19:33.681Z,4.85
2023-04-30T21:22:01.985Z,4.82
2023-04-30T21:24:31.803Z,5.80
2023-04-30T21:27:00.147Z,5.40
2023-04-30T21:29:28.566Z,4.80
2023-04-30T21:31:56.981Z,4.32
2023-04-30T21:34:25.303Z,4.30
2023-04-30T21:36:54.772Z,3.58
2023-04-30T21:39:23.239Z,4.47
2023-04-30T21:41:51.337Z,4.15
2023-04-30T21:44:20.095Z,4.30
2023-04-30T21:46:48.654Z,4.22
2023-04-30T21:49:16.854Z,4.68
2023-04-30T21:51:44.915Z,4.50
2023-04-30T21:54:14.496Z,4.07
2023-04-30T21:56:42.519Z,5.28
2023-04-30T21:59:10.692Z,4.20
2023-04-30T22:01:39.245Z,4.50
2023-04-30T22:04:08.866Z,4.03
2023-04-30T22:06:37.482Z,3.72
2023-04-30T22:09:06.194Z,4.85
2023-04-30T22:11:35.997Z,4.60
2023-04-30T22:14:05.109Z,4.22
2023-04-30T22:16:33.670Z,4.65
2023-04-30T22:19:02.107Z,3.72
2023-04-30T22:21:31.011Z,4.37
2023-04-30T22:24:00.851Z,4.03
2023-04-30T22:26:29.129Z,4.00
2023-04-30T22:28:58.861Z,3.95
2023-04-30T22:31:26.989Z,3.45
2023-04-30T22:33:55.513Z,4.05
2023-04-30T22:36:24.103Z,4.03
2023-04-30T22:38:52.215Z,4.05
2023-04-30T22:41:22.022Z,4.12
2023-04-30T22:43:50.318Z,3.20
2023-04-30T22:46:20.127Z,4.05
2023-04-30T22:48:48.926Z,3.35
2023-04-30T22:51:18.102Z,3.60
2023-04-30T22:53:46.145Z,3.37
2023-04-30T22:56:14.391Z,3.45
2023-04-30T22:58:42.529Z,2.83
2023-04-30T23:01:10.720Z,2.30
2023-04-30T23:03:40.871Z,2.30
2023-04-30T23:06:09.043Z,2.58
2023-04-30T23:08:37.096Z,2.72
2023-04-30T23:11:06.122Z,2.20
2023-04-30T23:13:34.532Z,2.65
2023-04-30T23:16:05.579Z,3.65
2023-04-30T23:18:34.596Z,3.00
2023-04-30T23:21:05.323Z,4.47
2023-04-30T23:23:33.844Z,3.20
2023-04-30T23:26:02.278Z,3.10
2023-04-30T23:28:30.644Z,3.28
2023-04-30T23:30:59.141Z,3.53
2023-04-30T23:33:27.634Z,3.30
2023-04-30T23:35:57.859Z,3.75
2023-04-30T23:38:27.639Z,3.53
2023-04-30T23:40:57.533Z,3.58
2023-04-30T23:43:32.807Z,2.70
2023-04-30T23:46:01.734Z,2.53
2023-04-30T23:48:30.483Z,2.67
2023-04-30T23:51:02.773Z,2.70
2023-04-30T23:53:32.809Z,2.90
2023-04-30T23:56:01.263Z,2.50
2023-04-30T23:58:30.893Z,2.65
